createdAt,value
2018-11-25T00:01:11.071Z,95574.99
2018-11-25T00:03:37.068Z,95575.40
2018-11-25T00:06:03.112Z,95580.16
2018-11-25T00:08:29.155Z,95590.34
2018-11-25T00:10:55.186Z,95579.19
2018-11-25T00:13:21.208Z,95576.77
2018-11-25T00:15:47.192Z,95574.74
2018-11-25T00:18:13.175Z,95575.77
2018-11-25T00:20:39.195Z,95559.05
2018-11-25T00:23:05.210Z,95556.14
2018-11-25T00:25:31.193Z,95546.73
2018-11-25T00:27:57.204Z,95539.39
2018-11-25T00:30:23.204Z,95541.17
2018-11-25T00:32:49.182Z,95538.02
2018-11-25T00:35:15.196Z,95538.02
2018-11-25T00:37:48.070Z,95532.75
2018-11-25T00:40:07.166Z,95533.78
2018-11-25T00:42:33.162Z,95530.38
2018-11-25T00:44:59.168Z,95522.88
2018-11-25T00:47:25.154Z,95519.97
2018-11-25T00:49:51.138Z,95523.84
2018-11-25T00:52:17.152Z,95518.81
2018-11-25T00:54:43.192Z,95516.47
2018-11-25T00:57:09.175Z,95520.94
2018-11-25T00:59:35.149Z,95516.97
2018-11-25T01:02:01.138Z,95518.59
2018-11-25T01:04:27.137Z,95516.19
2018-11-25T01:06:53.112Z,95514.22
2018-11-25T01:09:19.132Z,95519.25
2018-11-25T01:11:45.152Z,95507.13
2018-11-25T01:14:11.156Z,95508.91
2018-11-25T01:16:37.135Z,95508.09
2018-11-25T01:19:03.153Z,95507.75
2018-11-25T01:21:29.168Z,95504.13
2018-11-25T01:23:55.153Z,95501.06
2018-11-25T01:26:21.171Z,95503.16
2018-11-25T01:28:47.173Z,95498.93
2018-11-25T01:31:13.169Z,95484.20
2018-11-25T01:33:39.185Z,95484.98
2018-11-25T01:36:05.206Z,95496.34
2018-11-25T01:38:31.190Z,95493.98
2018-11-25T01:40:57.214Z,95489.45
2018-11-25T01:43:23.200Z,95485.12
2018-11-25T01:45:49.207Z,95490.67
2018-11-25T01:48:15.192Z,95480.98
2018-11-25T01:50:41.179Z,95476.73
2018-11-25T01:53:07.153Z,95478.64
2018-11-25T01:55:33.183Z,95473.20
2018-11-25T01:57:59.156Z,95471.17
2018-11-25T02:00:25.152Z,95470.55
2018-11-25T02:02:51.129Z,95474.33
2018-11-25T02:05:17.153Z,95469.17
2018-11-25T02:07:43.152Z,95464.89
2018-11-25T02:10:09.161Z,95466.89
2018-11-25T02:12:35.151Z,95460.41
2018-11-25T02:15:01.142Z,95452.97
2018-11-25T02:17:27.147Z,95452.32
2018-11-25T02:19:53.140Z,95437.53
2018-11-25T02:22:19.151Z,95434.78
2018-11-25T02:24:45.141Z,95428.31
2018-11-25T02:27:11.136Z,95417.06
2018-11-25T02:29:37.129Z,95418.84
2018-11-25T02:32:03.159Z,95424.81
2018-11-25T02:34:29.160Z,95420.87
2018-11-25T02:36:55.182Z,95429.84
2018-11-25T02:39:21.208Z,95427.75
2018-11-25T02:41:47.207Z,95436.97
2018-11-25T02:44:13.217Z,95429.13
2018-11-25T02:46:39.228Z,95432.38
2018-11-25T02:49:05.231Z,95438.00
2018-11-25T02:51:31.243Z,95440.84
2018-11-25T02:53:57.263Z,95443.04
2018-11-25T02:56:23.249Z,95423.78
2018-11-25T02:58:49.254Z,95422.19
2018-11-25T03:01:15.257Z,95420.81
2018-11-25T03:03:41.260Z,95418.12
2018-11-25T03:06:07.279Z,95416.91
2018-11-25T03:08:33.290Z,95412.21
2018-11-25T03:10:59.268Z,95406.87
2018-11-25T03:13:25.243Z,95410.43
2018-11-25T03:15:51.299Z,95406.00
2018-11-25T03:18:17.284Z,95404.68
2018-11-25T03:20:43.295Z,95402.17
2018-11-25T03:23:09.319Z,95398.00
2018-11-25T03:25:35.287Z,95397.06
2018-11-25T03:28:01.285Z,95391.74
2018-11-25T03:30:27.281Z,95375.45
2018-11-25T03:32:53.276Z,95379.48
2018-11-25T03:35:19.277Z,95373.57
2018-11-25T03:37:45.280Z,95373.67
2018-11-25T03:40:11.273Z,95386.17
2018-11-25T03:42:37.276Z,95380.77
2018-11-25T03:45:03.285Z,95381.42
2018-11-25T03:47:29.281Z,95381.80
2018-11-25T03:49:55.278Z,95378.64
2018-11-25T03:52:21.328Z,95362.53
2018-11-25T03:54:47.265Z,95354.73
2018-11-25T03:57:13.258Z,95354.98
2018-11-25T03:59:39.323Z,95361.31
2018-11-25T04:02:05.284Z,95371.20
2018-11-25T04:04:31.300Z,95376.86
2018-11-25T04:06:57.294Z,95395.37
2018-11-25T04:09:23.341Z,95397.50
2018-11-25T04:11:49.359Z,95393.99
2018-11-25T04:14:15.349Z,95383.28
2018-11-25T04:16:41.362Z,95384.47
2018-11-25T04:19:07.344Z,95385.73
2018-11-25T04:21:33.325Z,95379.31
2018-11-25T04:23:59.308Z,95374.97
2018-11-25T04:26:25.300Z,95376.34
2018-11-25T04:28:51.300Z,95368.81
2018-11-25T04:31:17.288Z,95361.53
2018-11-25T04:33:43.305Z,95364.80
2018-11-25T04:36:09.289Z,95361.53
2018-11-25T04:38:35.274Z,95369.38
2018-11-25T04:41:01.269Z,95366.22
2018-11-25T04:43:27.277Z,95368.81
2018-11-25T04:45:53.252Z,95367.84
2018-11-25T04:48:19.296Z,95360.23
2018-11-25T04:50:45.289Z,95363.12
2018-11-25T04:53:11.274Z,95360.23
2018-11-25T04:55:37.251Z,95360.50
2018-11-25T04:58:03.293Z,95360.64
2018-11-25T05:00:29.303Z,95358.42
2018-11-25T05:02:55.293Z,95357.89
2018-11-25T05:05:21.286Z,95356.23
2018-11-25T05:07:47.298Z,95356.78
2018-11-25T05:10:13.274Z,95363.47
2018-11-25T05:12:39.300Z,95359.67
2018-11-25T05:15:05.374Z,95351.05
2018-11-25T05:17:31.378Z,95346.36
2018-11-25T05:19:57.388Z,95347.41
2018-11-25T05:22:23.372Z,95345.77
2018-11-25T05:24:49.364Z,95347.50
2018-11-25T05:27:15.351Z,95342.67
2018-11-25T05:29:41.384Z,95338.38
2018-11-25T05:32:07.342Z,95343.27
2018-11-25T05:34:33.328Z,95348.17
2018-11-25T05:36:59.313Z,95348.88
2018-11-25T05:39:25.285Z,95346.29
2018-11-25T05:41:51.302Z,95343.53
2018-11-25T05:44:17.377Z,95348.69
2018-11-25T05:46:43.336Z,95354.19
2018-11-25T05:49:09.369Z,95355.92
2018-11-25T05:51:35.382Z,95362.13
2018-11-25T05:54:01.404Z,95355.77
2018-11-25T05:56:27.569Z,95359.37
2018-11-25T05:58:53.585Z,95361.91
2018-11-25T06:01:19.556Z,95354.23
2018-11-25T06:03:45.565Z,95346.13
2018-11-25T06:06:11.555Z,95343.22
2018-11-25T06:08:37.566Z,95344.59
2018-11-25T06:11:03.558Z,95335.93
2018-11-25T06:13:29.577Z,95341.28
2018-11-25T06:15:55.607Z,95340.33
2018-11-25T06:18:21.608Z,95343.97
2018-11-25T06:20:47.618Z,95349.28
2018-11-25T06:23:13.634Z,95347.16
2018-11-25T06:25:39.638Z,95348.88
2018-11-25T06:28:05.618Z,95347.30
2018-11-25T06:30:31.608Z,95349.85
2018-11-25T06:32:57.596Z,95355.14
2018-11-25T06:35:23.584Z,95351.87
2018-11-25T06:37:49.635Z,95348.72
2018-11-25T06:40:15.645Z,95347.91
2018-11-25T06:42:41.689Z,95336.91
2018-11-25T06:45:07.703Z,95333.94
2018-11-25T06:47:33.725Z,95334.09
2018-11-25T06:49:59.720Z,95331.86
2018-11-25T06:52:25.732Z,95321.20
2018-11-25T06:54:51.801Z,95320.42
2018-11-25T06:57:17.807Z,95317.62
2018-11-25T06:59:43.814Z,95322.26
2018-11-25T07:02:09.821Z,95329.30
2018-11-25T07:04:35.797Z,95331.48
2018-11-25T07:07:01.811Z,95345.86
2018-11-25T07:09:27.826Z,95349.94
2018-11-25T07:11:55.312Z,95361.14
2018-11-25T07:14:21.295Z,95359.36
2018-11-25T07:16:47.411Z,95348.80
2018-11-25T07:19:13.368Z,95347.43
2018-11-25T07:21:39.460Z,95345.70
2018-11-25T07:24:05.618Z,95343.00
2018-11-25T07:26:31.610Z,95336.13
2018-11-25T07:28:57.662Z,95334.53
2018-11-25T07:31:23.857Z,95333.42
2018-11-25T07:33:49.849Z,95333.89
2018-11-25T07:36:15.847Z,95340.77
2018-11-25T07:38:41.866Z,95333.48
2018-11-25T07:41:07.862Z,95335.88
2018-11-25T07:43:33.864Z,95344.13
2018-11-25T07:45:59.838Z,95352.45
2018-11-25T07:48:25.845Z,95338.73
2018-11-25T07:50:51.841Z,95345.45
2018-11-25T07:53:17.860Z,95354.41
2018-11-25T07:55:43.864Z,95348.61
2018-11-25T07:58:09.852Z,95345.45
2018-11-25T08:00:35.863Z,95333.18
2018-11-25T08:03:01.852Z,95327.06
2018-11-25T08:05:27.882Z,95324.36
2018-11-25T08:07:53.867Z,95315.54
2018-11-25T08:10:19.883Z,95318.23
2018-11-25T08:12:45.888Z,95318.86
2018-11-25T08:15:11.869Z,95321.61
2018-11-25T08:17:37.872Z,95329.25
2018-11-25T08:20:03.933Z,95321.05
2018-11-25T08:22:29.938Z,95316.51
2018-11-25T08:24:55.942Z,95320.64
2018-11-25T08:27:21.973Z,95331.64
2018-11-25T08:29:48.046Z,95326.25
2018-11-25T08:32:14.044Z,95322.42
2018-11-25T08:34:40.049Z,95320.85
2018-11-25T08:37:06.032Z,95322.17
2018-11-25T08:39:32.011Z,95315.59
2018-11-25T08:42:02.116Z,95311.81
2018-11-25T08:44:28.425Z,95307.58
2018-11-25T08:46:54.404Z,95305.55
2018-11-25T08:49:20.455Z,95305.20
2018-11-25T08:51:46.488Z,95295.52
2018-11-25T08:54:12.457Z,95301.08
2018-11-25T08:56:38.522Z,95288.69
2018-11-25T08:59:04.508Z,95283.14
2018-11-25T09:01:30.531Z,95286.50
2018-11-25T09:03:56.520Z,95278.20
2018-11-25T09:06:22.538Z,95283.94
2018-11-25T09:08:48.539Z,95274.87
2018-11-25T09:11:14.509Z,95271.05
2018-11-25T09:13:40.508Z,95271.91
2018-11-25T09:16:06.509Z,95269.84
2018-11-25T09:18:32.490Z,95259.89
2018-11-25T09:20:58.491Z,95252.41
2018-11-25T09:23:24.489Z,95245.67
2018-11-25T09:25:50.489Z,95243.70
2018-11-25T09:28:16.532Z,95232.94
2018-11-25T09:30:42.548Z,95239.92
2018-11-25T09:33:08.542Z,95232.53
2018-11-25T09:35:34.538Z,95231.37
2018-11-25T09:38:00.558Z,95217.33
2018-11-25T09:40:26.551Z,95224.59
2018-11-25T09:42:52.563Z,95211.33
2018-11-25T09:45:18.546Z,95208.03
2018-11-25T09:47:44.542Z,95209.19
2018-11-25T09:50:10.523Z,95201.95
2018-11-25T09:52:36.518Z,95199.87
2018-11-25T09:55:02.558Z,95196.25
2018-11-25T09:57:28.553Z,95195.73
2018-11-25T09:59:54.558Z,95188.45
2018-11-25T10:02:20.575Z,95190.85
2018-11-25T10:04:46.577Z,95181.88
2018-11-25T10:07:12.572Z,95179.92
2018-11-25T10:09:38.609Z,95179.20
2018-11-25T10:12:04.593Z,95181.49
2018-11-25T10:14:30.606Z,95186.75
2018-11-25T10:16:56.715Z,95181.54
2018-11-25T10:19:22.734Z,95170.18
2018-11-25T10:21:48.725Z,95178.20
2018-11-25T10:24:14.739Z,95167.52
2018-11-25T10:26:40.728Z,95156.22
2018-11-25T10:29:07.117Z,95158.45
2018-11-25T10:31:33.107Z,95146.47
2018-11-25T10:33:59.145Z,95145.28
2018-11-25T10:36:27.597Z,95145.78
2018-11-25T10:38:53.592Z,95145.30
2018-11-25T10:41:19.614Z,95137.80
2018-11-25T10:43:45.729Z,95138.61
2018-11-25T10:46:11.736Z,95136.07
2018-11-25T10:48:38.041Z,95130.80
2018-11-25T10:51:05.392Z,95127.77
2018-11-25T10:53:31.409Z,95129.02
2018-11-25T10:55:57.429Z,95120.72
2018-11-25T10:58:23.432Z,95116.39
2018-11-25T11:00:49.468Z,95120.00
2018-11-25T11:03:15.456Z,95119.78
2018-11-25T11:05:41.462Z,95114.11
2018-11-25T11:08:07.467Z,95112.73
2018-11-25T11:10:33.473Z,95111.75
2018-11-25T11:12:59.444Z,95110.02
2018-11-25T11:15:25.445Z,95107.31
2018-11-25T11:17:51.428Z,95104.31
2018-11-25T11:20:17.429Z,95108.37
2018-11-25T11:22:43.439Z,95101.41
2018-11-25T11:25:09.636Z,95091.94
2018-11-25T11:27:35.642Z,95091.77
2018-11-25T11:30:01.813Z,95094.69
2018-11-25T11:32:27.788Z,95100.69
2018-11-25T11:34:53.765Z,95095.34
2018-11-25T11:37:19.748Z,95085.54
2018-11-25T11:39:45.767Z,95038.27
2018-11-25T11:42:11.779Z,95059.09
2018-11-25T11:44:38.123Z,95055.01
2018-11-25T11:47:04.134Z,95053.98
2018-11-25T11:49:30.118Z,95049.41
2018-11-25T11:51:56.115Z,95050.27
2018-11-25T11:54:22.100Z,95051.59
2018-11-25T11:56:48.123Z,95050.06
2018-11-25T11:59:14.235Z,95047.88
2018-11-25T12:01:40.239Z,95040.71
2018-11-25T12:04:06.258Z,95034.14
2018-11-25T12:06:32.263Z,95030.70
2018-11-25T12:08:58.280Z,95030.66
2018-11-25T12:11:24.257Z,95021.19
2018-11-25T12:13:50.268Z,95017.86
2018-11-25T12:16:16.325Z,95010.89
2018-11-25T12:18:42.308Z,95011.51
2018-11-25T12:21:08.438Z,94999.52
2018-11-25T12:23:34.472Z,95004.18
2018-11-25T12:26:02.891Z,95001.91
2018-11-25T12:28:28.869Z,94990.90
2018-11-25T12:30:55.271Z,94995.43
2018-11-25T12:33:21.256Z,94989.36
2018-11-25T12:35:47.310Z,94987.09
2018-11-25T12:38:13.291Z,94985.30
2018-11-25T12:40:39.381Z,94985.95
2018-11-25T12:43:05.345Z,94977.29
2018-11-25T12:45:31.329Z,94956.67
2018-11-25T12:47:57.328Z,94959.38
2018-11-25T12:50:23.326Z,94955.20
2018-11-25T12:52:49.295Z,94948.31
2018-11-25T12:55:15.322Z,94950.98
2018-11-25T12:57:41.308Z,94951.30
2018-11-25T13:00:07.326Z,94955.39
2018-11-25T13:02:33.423Z,94944.12
2018-11-25T13:04:59.420Z,94936.47
2018-11-25T13:07:25.393Z,94941.24
2018-11-25T13:09:51.413Z,94941.01
2018-11-25T13:12:17.436Z,94932.63
2018-11-25T13:14:43.473Z,94937.97
2018-11-25T13:17:09.476Z,94926.99
2018-11-25T13:19:35.482Z,94923.43
2018-11-25T13:22:01.494Z,94921.41
2018-11-25T13:24:27.548Z,94921.58
2018-11-25T13:26:53.546Z,94924.49
2018-11-25T13:29:19.543Z,94914.12
2018-11-25T13:31:45.557Z,94920.70
2018-11-25T13:34:11.572Z,94912.80
2018-11-25T13:36:37.583Z,94910.20
2018-11-25T13:39:03.618Z,94899.86
2018-11-25T13:41:29.591Z,94905.56
2018-11-25T13:43:55.650Z,94903.91
2018-11-25T13:46:21.759Z,94914.52
2018-11-25T13:48:47.757Z,94910.72
2018-11-25T13:51:13.777Z,94906.86
2018-11-25T13:53:39.780Z,94904.08
2018-11-25T13:56:05.766Z,94899.59
2018-11-25T13:58:31.763Z,94897.61
2018-11-25T14:00:57.801Z,94894.66
2018-11-25T14:03:26.278Z,94897.81
2018-11-25T14:05:53.002Z,94892.67
2018-11-25T14:08:18.350Z,94889.48
2018-11-25T14:10:44.357Z,94890.69
2018-11-25T14:13:10.380Z,94889.35
2018-11-25T14:15:36.379Z,94891.02
2018-11-25T14:18:02.372Z,94892.31
2018-11-25T14:20:28.351Z,94884.05
2018-11-25T14:22:54.350Z,94882.23
2018-11-25T14:25:20.353Z,94880.06
2018-11-25T14:27:46.370Z,94873.17
2018-11-25T14:30:13.456Z,94875.08
2018-11-25T14:32:38.399Z,94874.79
2018-11-25T14:35:04.388Z,94880.22
2018-11-25T14:37:30.368Z,94875.72
2018-11-25T14:39:56.450Z,94869.21
2018-11-25T14:42:22.445Z,94874.92
2018-11-25T14:44:48.486Z,94869.05
2018-11-25T14:47:14.521Z,94877.91
2018-11-25T14:49:42.305Z,94866.30
2018-11-25T14:52:08.433Z,94861.02
2018-11-25T14:54:34.835Z,94858.40
2018-11-25T14:57:00.833Z,94853.06
2018-11-25T14:59:26.848Z,94862.33
2018-11-25T15:01:52.858Z,94853.81
2018-11-25T15:04:18.881Z,94860.42
2018-11-25T15:06:45.013Z,94859.69
2018-11-25T15:09:11.909Z,94862.16
2018-11-25T15:11:38.545Z,94855.24
2018-11-25T15:14:05.485Z,94850.14
2018-11-25T15:16:32.433Z,94847.02
2018-11-25T15:18:59.169Z,94839.50
2018-11-25T15:21:25.188Z,94847.92
2018-11-25T15:23:51.186Z,94857.55
2018-11-25T15:26:17.165Z,94857.02
2018-11-25T15:28:43.172Z,94854.64
2018-11-25T15:31:09.186Z,94848.73
2018-11-25T15:33:35.206Z,94862.13
2018-11-25T15:36:01.197Z,94857.79
2018-11-25T15:38:27.651Z,94849.70
2018-11-25T15:40:54.104Z,94857.96
2018-11-25T15:43:20.132Z,94859.13
2018-11-25T15:45:46.178Z,94857.55
2018-11-25T15:48:12.160Z,94854.59
2018-11-25T15:50:38.262Z,94844.56
2018-11-25T15:53:04.278Z,94853.87
2018-11-25T15:55:30.301Z,94852.05
2018-11-25T15:57:56.892Z,94849.91
2018-11-25T16:00:22.939Z,94850.50
2018-11-25T16:02:48.924Z,94842.21
2018-11-25T16:05:14.899Z,94836.11
2018-11-25T16:07:40.906Z,94833.76
2018-11-25T16:10:06.932Z,94830.03
2018-11-25T16:12:32.951Z,94827.44
2018-11-25T16:14:58.956Z,94835.81
2018-11-25T16:17:25.013Z,94840.71
2018-11-25T16:19:51.021Z,94829.27
2018-11-25T16:22:17.101Z,94829.62
2018-11-25T16:24:43.107Z,94834.20
2018-11-25T16:27:09.115Z,94832.45
2018-11-25T16:29:35.148Z,94817.72
2018-11-25T16:32:01.190Z,94820.30
2018-11-25T16:34:27.214Z,94832.69
2018-11-25T16:36:53.215Z,94832.86
2018-11-25T16:39:19.217Z,94824.03
2018-11-25T16:41:45.191Z,94821.31
2018-11-25T16:44:12.082Z,94809.69
2018-11-25T16:46:38.094Z,94826.41
2018-11-25T16:49:04.152Z,94799.22
2018-11-25T16:51:30.204Z,94801.97
2018-11-25T16:53:56.223Z,94800.84
2018-11-25T16:56:22.215Z,94804.92
2018-11-25T16:58:48.192Z,94808.72
2018-11-25T17:01:14.219Z,94798.72
2018-11-25T17:03:40.201Z,94803.83
2018-11-25T17:06:06.216Z,94794.66
2018-11-25T17:08:32.230Z,94796.23
2018-11-25T17:10:58.230Z,94778.17
2018-11-25T17:13:24.209Z,94778.41
2018-11-25T17:15:50.211Z,94781.94
2018-11-25T17:18:16.217Z,94775.89
2018-11-25T17:20:42.197Z,94764.89
2018-11-25T17:23:08.217Z,94773.21
2018-11-25T17:25:34.276Z,94768.08
2018-11-25T17:28:00.257Z,94783.55
2018-11-25T17:30:26.304Z,94790.51
2018-11-25T17:32:52.311Z,94789.09
2018-11-25T17:35:19.109Z,94788.39
2018-11-25T17:37:46.099Z,94785.44
2018-11-25T17:40:13.002Z,94776.77
2018-11-25T17:42:39.537Z,94782.48
2018-11-25T17:45:06.486Z,94766.03
2018-11-25T17:47:33.448Z,94759.52
2018-11-25T17:50:05.088Z,94770.73
2018-11-25T17:52:32.654Z,94772.91
2018-11-25T17:54:58.658Z,94772.98
2018-11-25T17:57:24.674Z,94764.48
2018-11-25T17:59:50.693Z,94761.12
2018-11-25T18:02:16.714Z,94753.41
2018-11-25T18:04:42.717Z,94754.27
2018-11-25T18:07:08.727Z,94748.36
2018-11-25T18:09:34.714Z,94746.19
2018-11-25T18:12:00.734Z,94731.88
2018-11-25T18:14:26.759Z,94722.61
2018-11-25T18:16:52.780Z,94711.83
2018-11-25T18:19:18.806Z,94710.79
2018-11-25T18:21:44.783Z,94710.39
2018-11-25T18:24:12.954Z,94711.16
2018-11-25T18:26:38.984Z,94716.47
2018-11-25T18:29:05.013Z,94716.20
2018-11-25T18:31:30.992Z,94721.34
2018-11-25T18:33:57.222Z,94718.95
2018-11-25T18:36:23.249Z,94720.33
2018-11-25T18:38:49.249Z,94713.81
2018-11-25T18:41:15.287Z,94720.33
2018-11-25T18:43:41.312Z,94722.45
2018-11-25T18:46:07.357Z,94723.45
2018-11-25T18:48:33.335Z,94724.13
2018-11-25T18:50:59.360Z,94720.53
2018-11-25T18:53:25.358Z,94713.88
2018-11-25T18:55:51.360Z,94709.31
2018-11-25T18:58:17.392Z,94705.16
2018-11-25T19:00:43.394Z,94696.26
2018-11-25T19:03:09.394Z,94700.36
2018-11-25T19:05:35.386Z,94705.02
2018-11-25T19:08:01.433Z,94694.21
2018-11-25T19:10:27.431Z,94682.59
2018-11-25T19:12:53.413Z,94701.23
2018-11-25T19:15:19.453Z,94692.63
2018-11-25T19:17:45.480Z,94689.08
2018-11-25T19:20:11.476Z,94689.08
2018-11-25T19:22:37.466Z,94688.84
2018-11-25T19:25:03.480Z,94678.80
2018-11-25T19:27:29.451Z,94680.16
2018-11-25T19:29:55.468Z,94664.23
2018-11-25T19:32:21.455Z,94668.34
2018-11-25T19:34:47.436Z,94649.64
2018-11-25T19:37:13.461Z,94656.52
2018-11-25T19:39:39.492Z,94672.13
2018-11-25T19:42:05.493Z,94666.48
2018-11-25T19:44:31.501Z,94676.55
2018-11-25T19:46:57.505Z,94673.59
2018-11-25T19:49:23.493Z,94661.78
2018-11-25T19:51:49.473Z,94666.00
2018-11-25T19:54:15.464Z,94665.80
2018-11-25T19:56:41.474Z,94667.81
2018-11-25T19:59:07.466Z,94654.02
2018-11-25T20:01:33.461Z,94649.89
2018-11-25T20:04:00.453Z,94648.28
2018-11-25T20:06:26.480Z,94640.77
2018-11-25T20:08:52.492Z,94652.98
2018-11-25T20:11:18.509Z,94646.84
2018-11-25T20:13:44.490Z,94632.50
2018-11-25T20:16:10.514Z,94625.22
2018-11-25T20:18:36.501Z,94616.39
2018-11-25T20:21:02.491Z,94626.97
2018-11-25T20:23:28.507Z,94627.94
2018-11-25T20:25:54.501Z,94612.83
2018-11-25T20:28:20.484Z,94627.20
2018-11-25T20:30:46.553Z,94626.80
2018-11-25T20:33:12.553Z,94618.70
2018-11-25T20:35:38.577Z,94609.67
2018-11-25T20:38:06.026Z,94601.76
2018-11-25T20:40:35.096Z,94616.76
2018-11-25T20:43:01.142Z,94616.50
2018-11-25T20:45:39.103Z,94602.45
2018-11-25T20:48:01.506Z,94603.40
2018-11-25T20:50:27.503Z,94584.13
2018-11-25T20:52:56.979Z,94606.12
2018-11-25T20:55:20.294Z,94598.58
2018-11-25T20:57:46.425Z,94595.51
2018-11-25T21:00:12.474Z,94581.37
2018-11-25T21:02:38.580Z,94589.20
2018-11-25T21:05:04.561Z,94591.20
2018-11-25T21:07:30.540Z,94584.13
2018-11-25T21:09:56.541Z,94573.69
2018-11-25T21:12:22.533Z,94577.78
2018-11-25T21:14:48.782Z,94574.23
2018-11-25T21:17:14.784Z,94569.91
2018-11-25T21:19:40.768Z,94564.22
2018-11-25T21:22:06.744Z,94560.09
2018-11-25T21:24:32.739Z,94564.80
2018-11-25T21:26:58.741Z,94574.60
2018-11-25T21:29:24.753Z,94577.93
2018-11-25T21:31:50.742Z,94573.83
2018-11-25T21:34:16.728Z,94559.89
2018-11-25T21:36:42.715Z,94563.19
2018-11-25T21:39:08.770Z,94573.83
2018-11-25T21:41:34.824Z,94568.32
2018-11-25T21:44:00.786Z,94570.48
2018-11-25T21:46:26.796Z,94569.50
2018-11-25T21:48:52.792Z,94566.58
2018-11-25T21:51:18.793Z,94566.20
2018-11-25T21:53:44.790Z,94573.80
2018-11-25T21:56:14.363Z,94577.59
2018-11-25T21:58:36.790Z,94573.22
2018-11-25T22:01:02.810Z,94570.05
2018-11-25T22:03:28.820Z,94572.08
2018-11-25T22:05:54.804Z,94561.78
2018-11-25T22:08:20.809Z,94568.50
2018-11-25T22:10:46.802Z,94563.19
2018-11-25T22:13:12.802Z,94552.78
2018-11-25T22:15:38.786Z,94538.77
2018-11-25T22:18:04.806Z,94550.60
2018-11-25T22:20:30.817Z,94554.13
2018-11-25T22:22:56.813Z,94566.28
2018-11-25T22:25:22.819Z,94576.70
2018-11-25T22:27:48.809Z,94556.80
2018-11-25T22:30:14.833Z,94547.94
2018-11-25T22:32:40.829Z,94541.05
2018-11-25T22:35:06.807Z,94553.41
2018-11-25T22:37:32.848Z,94555.59
2018-11-25T22:39:58.837Z,94540.13
2018-11-25T22:42:24.826Z,94519.75
2018-11-25T22:44:50.825Z,94523.42
2018-11-25T22:47:16.813Z,94522.05
2018-11-25T22:49:42.833Z,94508.69
2018-11-25T22:52:08.834Z,94511.81
2018-11-25T22:54:34.840Z,94511.58
2018-11-25T22:57:00.859Z,94507.28
2018-11-25T22:59:26.824Z,94514.51
2018-11-25T23:01:52.820Z,94542.23
2018-11-25T23:04:18.840Z,94519.81
2018-11-25T23:06:44.828Z,94514.88
2018-11-25T23:09:10.828Z,94499.14
2018-11-25T23:11:36.846Z,94507.23
2018-11-25T23:14:02.828Z,94506.83
2018-11-25T23:16:28.862Z,94479.70
2018-11-25T23:18:54.857Z,94487.53
2018-11-25T23:21:20.847Z,94501.46
2018-11-25T23:23:46.860Z,94529.21
2018-11-25T23:26:12.859Z,94525.48
2018-11-25T23:28:38.871Z,94501.69
2018-11-25T23:31:04.869Z,94503.61
2018-11-25T23:33:30.868Z,94474.32
2018-11-25T23:35:56.871Z,94486.91
2018-11-25T23:38:22.848Z,94471.56
2018-11-25T23:40:48.828Z,94476.70
2018-11-25T23:43:14.854Z,94464.31
2018-11-25T23:45:40.881Z,94459.78
2018-11-25T23:48:06.880Z,94463.31
2018-11-25T23:50:32.893Z,94439.75
2018-11-25T23:52:58.892Z,94438.38
2018-11-25T23:55:24.870Z,94434.25
2018-11-25T23:57:50.886Z,94469.99
